Terminal Aerodrome Forecast
Issued by NWS

Home | Current Version | Previous Version | Text Only | Print | Product List | Glossary On
Versions: 1 2 3 4 5 6 7 8 9 10 11 12 13 14 15 16 17 18 19 20 21 22 23 24 25 26 27 28 29 30 31
000
FTUS46 KOTX 231130
TAFPUW
TAF
KPUW 231130Z 2312/2412 11009KT P6SM VCSH FEW050 SCT080 BKN120
     FM231500 11006KT P6SM SCT080 SCT200
     FM232100 24012KT P6SM VCTS FEW050 SCT080CB BKN100
     FM232300 26016G24KT P6SM -TSRA SCT050 SCT070CB BKN100
     FM240600 24013KT P6SM SCT050 BKN120=

USA.gov is the U.S. government's official web portal to all federal, state and local government web resources and services.